Terminal Aerodrome Forecast
Issued by NWS

Home | Current Version | Previous Version | Text Only | Print | Product List | Glossary On
Versions: 1 2 3 4 5 6 7 8 9 10 11 12 13 14 15 16 17 18 19 20 21 22 23 24 25 26 27 28 29 30 31 32 33 34
000
FTUS44 KLIX 282339 AAB
TAFASD
TAF AMD
KASD 282339Z 2900/2924 07005KT P6SM FEW035
     FM290600 21006KT P6SM VCSH BKN080 BKN150
      TEMPO 2907/2910 3SM TSRA BKN040CB
     FM291100 22005KT P6SM BKN070
     FM291800 21008KT P6SM VCTS BKN060CB=

USA.gov is the U.S. government's official web portal to all federal, state and local government web resources and services.